sensor_id;sensor_type;location;lat;lon;timestamp;temperature;humidity
9640;DHT22;51745;50.872;4.732;2023-05-07T00:00:12;13.40;99.90
9640;DHT22;51745;50.872;4.732;2023-05-07T00:03:01;13.30;99.90
9640;DHT22;51745;50.872;4.732;2023-05-07T00:06:14;15.30;99.90
9640;DHT22;51745;50.872;4.732;2023-05-07T00:09:11;13.50;99.90
9640;DHT22;51745;50.872;4.732;2023-05-07T00:12:09;13.50;99.90
9640;DHT22;51745;50.872;4.732;2023-05-07T00:14:58;13.50;99.90
9640;DHT22;51745;50.872;4.732;2023-05-07T00:17:49;13.40;99.90
9640;DHT22;51745;50.872;4.732;2023-05-07T00:20:47;13.40;99.90
9640;DHT22;51745;50.872;4.732;2023-05-07T00:23:35;13.40;99.90
9640;DHT22;51745;50.872;4.732;2023-05-07T00:26:30;13.70;99.90
9640;DHT22;51745;50.872;4.732;2023-05-07T00:29:30;13.40;99.90
9640;DHT22;51745;50.872;4.732;2023-05-07T00:32:21;13.40;99.90
9640;DHT22;51745;50.872;4.732;2023-05-07T00:35:22;13.40;99.90
9640;DHT22;51745;50.872;4.732;2023-05-07T00:38:22;13.30;99.90
9640;DHT22;51745;50.872;4.732;2023-05-07T00:41:13;13.50;99.90
9640;DHT22;51745;50.872;4.732;2023-05-07T00:44:10;13.70;99.90
9640;DHT22;51745;50.872;4.732;2023-05-07T00:46:58;13.90;99.90
9640;DHT22;51745;50.872;4.732;2023-05-07T00:49:46;13.40;99.90
9640;DHT22;51745;50.872;4.732;2023-05-07T00:52:34;13.30;99.90
9640;DHT22;51745;50.872;4.732;2023-05-07T00:55:23;13.40;99.90
9640;DHT22;51745;50.872;4.732;2023-05-07T00:58:10;13.30;99.90
9640;DHT22;51745;50.872;4.732;2023-05-07T01:00:57;13.30;99.90
9640;DHT22;51745;50.872;4.732;2023-05-07T01:03:45;13.30;99.90
9640;DHT22;51745;50.872;4.732;2023-05-07T01:06:40;13.20;99.90
9640;DHT22;51745;50.872;4.732;2023-05-07T01:09:29;13.20;99.90
9640;DHT22;51745;50.872;4.732;2023-05-07T01:12:17;13.20;99.90
9640;DHT22;51745;50.872;4.732;2023-05-07T01:15:05;13.20;99.90
9640;DHT22;51745;50.872;4.732;2023-05-07T01:17:53;13.10;99.90
9640;DHT22;51745;50.872;4.732;2023-05-07T01:20:48;13.30;99.90
9640;DHT22;51745;50.872;4.732;2023-05-07T01:23:37;13.30;99.90
9640;DHT22;51745;50.872;4.732;2023-05-07T01:26:29;13.40;99.90
9640;DHT22;51745;50.872;4.732;2023-05-07T01:29:17;14.00;99.90
9640;DHT22;51745;50.872;4.732;2023-05-07T01:32:05;13.30;99.90
9640;DHT22;51745;50.872;4.732;2023-05-07T01:34:53;13.40;99.90
9640;DHT22;51745;50.872;4.732;2023-05-07T01:37:41;13.40;99.90
9640;DHT22;51745;50.872;4.732;2023-05-07T01:40:30;13.50;99.90
9640;DHT22;51745;50.872;4.732;2023-05-07T01:43:18;13.40;99.90
9640;DHT22;51745;50.872;4.732;2023-05-07T01:46:06;13.50;99.90
9640;DHT22;51745;50.872;4.732;2023-05-07T01:48:53;15.90;99.90
9640;DHT22;51745;50.872;4.732;2023-05-07T01:51:42;13.30;99.90
9640;DHT22;51745;50.872;4.732;2023-05-07T01:54:30;13.30;99.90
9640;DHT22;51745;50.872;4.732;2023-05-07T01:57:20;13.30;99.90
9640;DHT22;51745;50.872;4.732;2023-05-07T02:00:11;14.20;99.90
9640;DHT22;51745;50.872;4.732;2023-05-07T02:03:03;13.30;99.90
9640;DHT22;51745;50.872;4.732;2023-05-07T02:06:01;13.30;99.90
9640;DHT22;51745;50.872;4.732;2023-05-07T02:08:55;13.80;99.90
9640;DHT22;51745;50.872;4.732;2023-05-07T02:11:46;11.40;99.90
9640;DHT22;51745;50.872;4.732;2023-05-07T02:14:37;13.30;99.90
9640;DHT22;51745;50.872;4.732;2023-05-07T02:17:29;13.20;99.90
9640;DHT22;51745;50.872;4.732;2023-05-07T02:20:19;13.20;99.90
9640;DHT22;51745;50.872;4.732;2023-05-07T02:23:07;13.50;99.90
9640;DHT22;51745;50.872;4.732;2023-05-07T02:25:54;13.30;99.90
9640;DHT22;51745;50.872;4.732;2023-05-07T02:28:42;13.30;99.90
9640;DHT22;51745;50.872;4.732;2023-05-07T02:31:32;13.30;99.90
9640;DHT22;51745;50.872;4.732;2023-05-07T02:34:20;15.80;99.90
9640;DHT22;51745;50.872;4.732;2023-05-07T02:37:08;13.30;99.90
9640;DHT22;51745;50.872;4.732;2023-05-07T02:39:56;12.50;99.90
9640;DHT22;51745;50.872;4.732;2023-05-07T02:42:44;14.00;99.90
9640;DHT22;51745;50.872;4.732;2023-05-07T02:45:34;13.50;99.90
9640;DHT22;51745;50.872;4.732;2023-05-07T02:48:26;16.20;99.90
9640;DHT22;51745;50.872;4.732;2023-05-07T02:51:14;13.40;99.90
9640;DHT22;51745;50.872;4.732;2023-05-07T02:54:02;13.40;99.90
9640;DHT22;51745;50.872;4.732;2023-05-07T02:56:51;11.90;99.90
9640;DHT22;51745;50.872;4.732;2023-05-07T02:59:38;13.40;99.90
9640;DHT22;51745;50.872;4.732;2023-05-07T03:02:27;13.40;99.90
9640;DHT22;51745;50.872;4.732;2023-05-07T03:05:16;13.30;99.90
9640;DHT22;51745;50.872;4.732;2023-05-07T03:08:04;13.40;99.90
9640;DHT22;51745;50.872;4.732;2023-05-07T03:10:52;13.40;99.90
9640;DHT22;51745;50.872;4.732;2023-05-07T03:13:40;13.40;99.90
9640;DHT22;51745;50.872;4.732;2023-05-07T03:16:27;13.30;99.90
9640;DHT22;51745;50.872;4.732;2023-05-07T03:19:15;13.40;99.90
9640;DHT22;51745;50.872;4.732;2023-05-07T03:22:04;13.60;99.90
9640;DHT22;51745;50.872;4.732;2023-05-07T03:24:52;13.20;99.90
9640;DHT22;51745;50.872;4.732;2023-05-07T03:27:39;13.40;99.90
9640;DHT22;51745;50.872;4.732;2023-05-07T03:30:28;13.30;99.90
9640;DHT22;51745;50.872;4.732;2023-05-07T03:33:20;13.50;99.90
9640;DHT22;51745;50.872;4.732;2023-05-07T03:36:08;13.30;99.90
9640;DHT22;51745;50.872;4.732;2023-05-07T03:38:57;13.30;99.90
9640;DHT22;51745;50.872;4.732;2023-05-07T03:41:53;13.30;99.90
9640;DHT22;51745;50.872;4.732;2023-05-07T03:44:41;13.20;99.90
9640;DHT22;51745;50.872;4.732;2023-05-07T03:47:29;13.20;99.90
9640;DHT22;51745;50.872;4.732;2023-05-07T03:50:17;13.20;99.90
9640;DHT22;51745;50.872;4.732;2023-05-07T03:53:07;13.20;99.90
9640;DHT22;51745;50.872;4.732;2023-05-07T03:55:59;13.70;99.90
9640;DHT22;51745;50.872;4.732;2023-05-07T03:58:50;13.20;99.90
9640;DHT22;51745;50.872;4.732;2023-05-07T04:01:40;13.20;99.90
9640;DHT22;51745;50.872;4.732;2023-05-07T04:04:34;13.20;99.90
9640;DHT22;51745;50.872;4.732;2023-05-07T04:07:22;13.60;99.90
9640;DHT22;51745;50.872;4.732;2023-05-07T04:10:10;13.10;99.90
9640;DHT22;51745;50.872;4.732;2023-05-07T04:13:03;13.60;99.90
9640;DHT22;51745;50.872;4.732;2023-05-07T04:15:51;14.00;99.90
9640;DHT22;51745;50.872;4.732;2023-05-07T04:18:39;13.10;99.90
9640;DHT22;51745;50.872;4.732;2023-05-07T04:21:27;13.10;99.90
9640;DHT22;51745;50.872;4.732;2023-05-07T04:24:16;13.10;99.90
9640;DHT22;51745;50.872;4.732;2023-05-07T04:27:04;12.90;99.90
9640;DHT22;51745;50.872;4.732;2023-05-07T04:29:55;13.90;99.90
9640;DHT22;51745;50.872;4.732;2023-05-07T04:32:44;13.20;99.90
9640;DHT22;51745;50.872;4.732;2023-05-07T04:35:32;13.20;99.90
9640;DHT22;51745;50.872;4.732;2023-05-07T04:38:20;13.20;99.90
9640;DHT22;51745;50.872;4.732;2023-05-07T04:41:12;11.20;99.90
9640;DHT22;51745;50.872;4.732;2023-05-07T04:44:00;13.30;99.90
9640;DHT22;51745;50.872;4.732;2023-05-07T04:46:52;14.00;99.90
9640;DHT22;51745;50.872;4.732;2023-05-07T04:49:43;13.30;99.90
9640;DHT22;51745;50.872;4.732;2023-05-07T04:52:30;13.40;99.90
9640;DHT22;51745;50.872;4.732;2023-05-07T04:55:18;13.40;99.90
9640;DHT22;51745;50.872;4.732;2023-05-07T04:58:11;13.70;99.90
9640;DHT22;51745;50.872;4.732;2023-05-07T05:00:59;14.60;99.90
9640;DHT22;51745;50.872;4.732;2023-05-07T05:03:50;13.50;99.90
9640;DHT22;51745;50.872;4.732;2023-05-07T05:06:39;13.60;99.90
9640;DHT22;51745;50.872;4.732;2023-05-07T05:09:32;13.60;99.90
9640;DHT22;51745;50.872;4.732;2023-05-07T05:12:26;14.00;99.90
9640;DHT22;51745;50.872;4.732;2023-05-07T05:15:14;13.70;99.90
9640;DHT22;51745;50.872;4.732;2023-05-07T05:18:02;14.70;99.90
9640;DHT22;51745;50.872;4.732;2023-05-07T05:20:52;15.40;99.90
9640;DHT22;51745;50.872;4.732;2023-05-07T05:23:40;14.00;99.90
9640;DHT22;51745;50.872;4.732;2023-05-07T05:26:33;14.10;99.90
9640;DHT22;51745;50.872;4.732;2023-05-07T05:29:20;14.10;99.90
9640;DHT22;51745;50.872;4.732;2023-05-07T05:32:08;16.30;99.90
9640;DHT22;51745;50.872;4.732;2023-05-07T05:34:56;15.70;99.90
9640;DHT22;51745;50.872;4.732;2023-05-07T05:37:45;15.20;99.90
9640;DHT22;51745;50.872;4.732;2023-05-07T05:40:36;14.50;99.90
9640;DHT22;51745;50.872;4.732;2023-05-07T05:43:23;14.60;99.90
9640;DHT22;51745;50.872;4.732;2023-05-07T05:46:11;14.60;99.90
9640;DHT22;51745;50.872;4.732;2023-05-07T05:48:59;14.70;99.90
9640;DHT22;51745;50.872;4.732;2023-05-07T05:51:47;15.10;99.90
9640;DHT22;51745;50.872;4.732;2023-05-07T05:54:36;14.80;99.90
9640;DHT22;51745;50.872;4.732;2023-05-07T05:57:24;14.80;99.90
9640;DHT22;51745;50.872;4.732;2023-05-07T06:00:16;14.80;99.90
9640;DHT22;51745;50.872;4.732;2023-05-07T06:03:15;14.80;99.90
9640;DHT22;51745;50.872;4.732;2023-05-07T06:06:03;14.90;99.90
9640;DHT22;51745;50.872;4.732;2023-05-07T06:08:52;15.00;99.90
9640;DHT22;51745;50.872;4.732;2023-05-07T06:11:50;15.10;99.90
9640;DHT22;51745;50.872;4.732;2023-05-07T06:14:38;14.80;99.90
9640;DHT22;51745;50.872;4.732;2023-05-07T06:17:27;15.30;99.90
9640;DHT22;51745;50.872;4.732;2023-05-07T06:20:14;15.20;99.90
9640;DHT22;51745;50.872;4.732;2023-05-07T06:23:05;15.20;99.90
9640;DHT22;51745;50.872;4.732;2023-05-07T06:25:53;15.20;99.90
9640;DHT22;51745;50.872;4.732;2023-05-07T06:28:46;15.30;99.90
9640;DHT22;51745;50.872;4.732;2023-05-07T06:31:36;15.30;99.90
9640;DHT22;51745;50.872;4.732;2023-05-07T06:34:27;15.50;99.90
9640;DHT22;51745;50.872;4.732;2023-05-07T06:37:17;13.70;99.90
9640;DHT22;51745;50.872;4.732;2023-05-07T06:40:14;15.60;99.90
9640;DHT22;51745;50.872;4.732;2023-05-07T06:43:02;16.50;99.90
9640;DHT22;51745;50.872;4.732;2023-05-07T06:46:02;15.50;99.90
9640;DHT22;51745;50.872;4.732;2023-05-07T06:48:52;15.50;99.90
9640;DHT22;51745;50.872;4.732;2023-05-07T06:51:41;15.40;99.90
9640;DHT22;51745;50.872;4.732;2023-05-07T06:54:28;15.40;99.90
9640;DHT22;51745;50.872;4.732;2023-05-07T06:57:17;15.30;99.90
9640;DHT22;51745;50.872;4.732;2023-05-07T07:00:05;15.30;99.90
9640;DHT22;51745;50.872;4.732;2023-05-07T07:03:05;15.70;99.90
9640;DHT22;51745;50.872;4.732;2023-05-07T07:05:54;14.50;99.90
9640;DHT22;51745;50.872;4.732;2023-05-07T07:08:43;15.40;99.90
9640;DHT22;51745;50.872;4.732;2023-05-07T07:11:33;15.50;99.90
9640;DHT22;51745;50.872;4.732;2023-05-07T07:14:23;15.50;99.90
9640;DHT22;51745;50.872;4.732;2023-05-07T07:17:12;15.60;99.90
9640;DHT22;51745;50.872;4.732;2023-05-07T07:20:06;15.80;99.90
9640;DHT22;51745;50.872;4.732;2023-05-07T07:23:04;15.90;99.90
9640;DHT22;51745;50.872;4.732;2023-05-07T07:25:52;15.90;99.90
9640;DHT22;51745;50.872;4.732;2023-05-07T07:28:43;16.00;99.90
9640;DHT22;51745;50.872;4.732;2023-05-07T07:31:38;16.10;99.90
9640;DHT22;51745;50.872;4.732;2023-05-07T07:34:25;15.80;99.90
9640;DHT22;51745;50.872;4.732;2023-05-07T07:37:15;16.80;99.90
9640;DHT22;51745;50.872;4.732;2023-05-07T07:40:03;16.10;99.90
9640;DHT22;51745;50.872;4.732;2023-05-07T07:42:56;16.20;99.90
9640;DHT22;51745;50.872;4.732;2023-05-07T07:45:45;16.60;99.90
9640;DHT22;51745;50.872;4.732;2023-05-07T07:48:36;16.40;99.90
9640;DHT22;51745;50.872;4.732;2023-05-07T07:51:24;16.60;99.90
9640;DHT22;51745;50.872;4.732;2023-05-07T07:54:15;16.30;99.90
9640;DHT22;51745;50.872;4.732;2023-05-07T07:57:03;18.80;99.90
9640;DHT22;51745;50.872;4.732;2023-05-07T07:59:54;16.30;99.90
9640;DHT22;51745;50.872;4.732;2023-05-07T08:02:42;16.30;99.90
9640;DHT22;51745;50.872;4.732;2023-05-07T08:05:38;16.50;99.90
9640;DHT22;51745;50.872;4.732;2023-05-07T08:08:26;16.80;99.90
9640;DHT22;51745;50.872;4.732;2023-05-07T08:11:18;18.70;99.90
9640;DHT22;51745;50.872;4.732;2023-05-07T08:14:12;16.50;99.90
9640;DHT22;51745;50.872;4.732;2023-05-07T08:17:06;17.00;99.90
9640;DHT22;51745;50.872;4.732;2023-05-07T08:19:57;15.40;99.90
9640;DHT22;51745;50.872;4.732;2023-05-07T08:22:48;17.10;99.90
9640;DHT22;51745;50.872;4.732;2023-05-07T08:25:39;16.90;99.90
9640;DHT22;51745;50.872;4.732;2023-05-07T08:28:30;17.00;99.90
9640;DHT22;51745;50.872;4.732;2023-05-07T08:31:21;16.90;99.90
9640;DHT22;51745;50.872;4.732;2023-05-07T08:34:12;17.20;99.90
9640;DHT22;51745;50.872;4.732;2023-05-07T08:37:05;18.20;99.90
9640;DHT22;51745;50.872;4.732;2023-05-07T08:39:56;17.30;99.90
9640;DHT22;51745;50.872;4.732;2023-05-07T08:42:48;17.30;99.90
9640;DHT22;51745;50.872;4.732;2023-05-07T08:48:58;17.60;99.90
9640;DHT22;51745;50.872;4.732;2023-05-07T08:51:46;17.50;99.90
9640;DHT22;51745;50.872;4.732;2023-05-07T08:54:36;17.40;99.90
9640;DHT22;51745;50.872;4.732;2023-05-07T08:57:28;17.60;99.90
9640;DHT22;51745;50.872;4.732;2023-05-07T09:00:16;17.20;99.90
9640;DHT22;51745;50.872;4.732;2023-05-07T09:03:08;17.70;99.90
9640;DHT22;51745;50.872;4.732;2023-05-07T09:06:02;17.70;99.90
9640;DHT22;51745;50.872;4.732;2023-05-07T09:08:52;17.00;99.90
9640;DHT22;51745;50.872;4.732;2023-05-07T09:11:44;17.20;99.90
9640;DHT22;51745;50.872;4.732;2023-05-07T09:14:34;16.90;99.90
9640;DHT22;51745;50.872;4.732;2023-05-07T09:17:23;17.00;99.90
9640;DHT22;51745;50.872;4.732;2023-05-07T09:20:17;18.50;99.90
9640;DHT22;51745;50.872;4.732;2023-05-07T09:23:12;16.60;99.90
9640;DHT22;51745;50.872;4.732;2023-05-07T09:26:01;16.90;99.90
9640;DHT22;51745;50.872;4.732;2023-05-07T09:28:57;16.60;99.90
9640;DHT22;51745;50.872;4.732;2023-05-07T09:31:47;16.50;99.90
9640;DHT22;51745;50.872;4.732;2023-05-07T09:34:42;16.40;99.90
9640;DHT22;51745;50.872;4.732;2023-05-07T09:37:33;14.30;99.90
9640;DHT22;51745;50.872;4.732;2023-05-07T09:40:23;15.90;99.90
9640;DHT22;51745;50.872;4.732;2023-05-07T09:43:13;16.50;99.90
9640;DHT22;51745;50.872;4.732;2023-05-07T09:46:11;16.50;99.90
9640;DHT22;51745;50.872;4.732;2023-05-07T09:49:10;16.50;99.90
9640;DHT22;51745;50.872;4.732;2023-05-07T09:52:08;16.50;99.90
9640;DHT22;51745;50.872;4.732;2023-05-07T09:55:05;18.60;99.90
9640;DHT22;51745;50.872;4.732;2023-05-07T09:57:59;16.70;99.90
9640;DHT22;51745;50.872;4.732;2023-05-07T10:00:50;16.80;99.90
9640;DHT22;51745;50.872;4.732;2023-05-07T10:03:40;16.50;99.90
9640;DHT22;51745;50.872;4.732;2023-05-07T10:06:32;16.60;99.90
9640;DHT22;51745;50.872;4.732;2023-05-07T10:09:20;16.50;99.90
9640;DHT22;51745;50.872;4.732;2023-05-07T10:12:08;18.50;99.90
9640;DHT22;51745;50.872;4.732;2023-05-07T10:14:59;16.70;99.90
9640;DHT22;51745;50.872;4.732;2023-05-07T10:17:47;16.60;99.90
9640;DHT22;51745;50.872;4.732;2023-05-07T10:20:38;16.60;99.90
9640;DHT22;51745;50.872;4.732;2023-05-07T10:23:37;16.60;99.90
9640;DHT22;51745;50.872;4.732;2023-05-07T10:26:32;16.70;99.90
9640;DHT22;51745;50.872;4.732;2023-05-07T10:29:29;16.70;99.90
9640;DHT22;51745;50.872;4.732;2023-05-07T10:32:33;19.10;99.90
9640;DHT22;51745;50.872;4.732;2023-05-07T10:35:25;18.10;99.90
9640;DHT22;51745;50.872;4.732;2023-05-07T10:38:16;16.50;99.90
9640;DHT22;51745;50.872;4.732;2023-05-07T10:41:16;16.60;99.90
9640;DHT22;51745;50.872;4.732;2023-05-07T10:44:20;18.50;99.90
9640;DHT22;51745;50.872;4.732;2023-05-07T10:47:24;16.60;99.90
9640;DHT22;51745;50.872;4.732;2023-05-07T10:50:21;17.80;99.90
9640;DHT22;51745;50.872;4.732;2023-05-07T10:53:25;16.70;99.90
9640;DHT22;51745;50.872;4.732;2023-05-07T10:56:26;16.70;99.90
9640;DHT22;51745;50.872;4.732;2023-05-07T10:59:32;16.70;99.90
9640;DHT22;51745;50.872;4.732;2023-05-07T11:05:36;16.70;99.90
9640;DHT22;51745;50.872;4.732;2023-05-07T11:08:53;16.80;99.90
9640;DHT22;51745;50.872;4.732;2023-05-07T11:11:47;17.30;99.90
9640;DHT22;51745;50.872;4.732;2023-05-07T11:15:00;16.80;99.90
9640;DHT22;51745;50.872;4.732;2023-05-07T11:17:52;17.70;99.90
9640;DHT22;51745;50.872;4.732;2023-05-07T11:24:06;17.60;99.90
9640;DHT22;51745;50.872;4.732;2023-05-07T11:27:06;17.10;99.90
9640;DHT22;51745;50.872;4.732;2023-05-07T11:30:18;14.50;99.90
9640;DHT22;51745;50.872;4.732;2023-05-07T11:33:12;17.40;99.90
9640;DHT22;51745;50.872;4.732;2023-05-07T11:36:14;16.00;99.90
9640;DHT22;51745;50.872;4.732;2023-05-07T11:40:03;16.20;99.90
9640;DHT22;51745;50.872;4.732;2023-05-07T11:43:21;18.20;99.90
9640;DHT22;51745;50.872;4.732;2023-05-07T11:46:44;17.40;99.90
9640;DHT22;51745;50.872;4.732;2023-05-07T11:49:33;16.80;99.90
9640;DHT22;51745;50.872;4.732;2023-05-07T11:52:23;17.70;99.90
9640;DHT22;51745;50.872;4.732;2023-05-07T11:55:12;16.90;99.90
9640;DHT22;51745;50.872;4.732;2023-05-07T11:58:01;16.80;99.90
9640;DHT22;51745;50.872;4.732;2023-05-07T12:00:48;17.40;99.90
9640;DHT22;51745;50.872;4.732;2023-05-07T12:03:39;17.30;99.90
9640;DHT22;51745;50.872;4.732;2023-05-07T12:06:28;17.00;99.90
9640;DHT22;51745;50.872;4.732;2023-05-07T12:09:17;17.20;99.90
9640;DHT22;51745;50.872;4.732;2023-05-07T12:12:06;17.60;99.90
9640;DHT22;51745;50.872;4.732;2023-05-07T12:14:55;17.70;99.90
9640;DHT22;51745;50.872;4.732;2023-05-07T12:18:03;17.70;99.90
9640;DHT22;51745;50.872;4.732;2023-05-07T12:20:52;17.90;99.90
9640;DHT22;51745;50.872;4.732;2023-05-07T12:23:40;18.10;99.90
9640;DHT22;51745;50.872;4.732;2023-05-07T12:26:27;18.00;99.90
9640;DHT22;51745;50.872;4.732;2023-05-07T12:29:16;18.60;99.90
9640;DHT22;51745;50.872;4.732;2023-05-07T12:32:04;18.10;99.90
9640;DHT22;51745;50.872;4.732;2023-05-07T12:34:53;18.00;99.90
9640;DHT22;51745;50.872;4.732;2023-05-07T12:37:43;17.90;99.90
9640;DHT22;51745;50.872;4.732;2023-05-07T12:40:35;17.90;99.90
9640;DHT22;51745;50.872;4.732;2023-05-07T12:43:24;17.90;99.90
9640;DHT22;51745;50.872;4.732;2023-05-07T12:46:16;17.80;99.90
9640;DHT22;51745;50.872;4.732;2023-05-07T12:49:04;17.80;99.90
9640;DHT22;51745;50.872;4.732;2023-05-07T12:51:53;17.50;99.90
9640;DHT22;51745;50.872;4.732;2023-05-07T12:54:41;17.70;99.90
9640;DHT22;51745;50.872;4.732;2023-05-07T12:57:29;17.80;99.90
9640;DHT22;51745;50.872;4.732;2023-05-07T13:00:32;18.60;99.90
9640;DHT22;51745;50.872;4.732;2023-05-07T13:03:26;18.50;99.90
9640;DHT22;51745;50.872;4.732;2023-05-07T13:06:16;18.10;99.90
9640;DHT22;51745;50.872;4.732;2023-05-07T13:09:04;18.40;99.90
9640;DHT22;51745;50.872;4.732;2023-05-07T13:11:54;18.10;99.90
9640;DHT22;51745;50.872;4.732;2023-05-07T13:14:41;18.20;99.90
9640;DHT22;51745;50.872;4.732;2023-05-07T13:17:30;18.00;99.90
9640;DHT22;51745;50.872;4.732;2023-05-07T13:20:20;17.90;99.90
9640;DHT22;51745;50.872;4.732;2023-05-07T13:23:11;18.40;99.90
9640;DHT22;51745;50.872;4.732;2023-05-07T13:25:58;18.00;99.90
9640;DHT22;51745;50.872;4.732;2023-05-07T13:28:56;17.80;99.90
9640;DHT22;51745;50.872;4.732;2023-05-07T13:31:44;17.70;99.90
9640;DHT22;51745;50.872;4.732;2023-05-07T13:34:34;17.80;99.90
9640;DHT22;51745;50.872;4.732;2023-05-07T13:37:25;18.00;99.90
9640;DHT22;51745;50.872;4.732;2023-05-07T13:40:13;17.90;99.90
9640;DHT22;51745;50.872;4.732;2023-05-07T13:43:01;18.10;99.90
9640;DHT22;51745;50.872;4.732;2023-05-07T13:45:49;19.20;99.90
9640;DHT22;51745;50.872;4.732;2023-05-07T13:48:42;18.30;99.90
9640;DHT22;51745;50.872;4.732;2023-05-07T13:51:29;18.20;99.90
9640;DHT22;51745;50.872;4.732;2023-05-07T13:54:19;18.10;99.90
9640;DHT22;51745;50.872;4.732;2023-05-07T13:57:06;18.10;99.90
9640;DHT22;51745;50.872;4.732;2023-05-07T13:59:57;18.10;99.90
9640;DHT22;51745;50.872;4.732;2023-05-07T14:02:44;17.90;99.90
9640;DHT22;51745;50.872;4.732;2023-05-07T14:05:32;18.10;99.90
9640;DHT22;51745;50.872;4.732;2023-05-07T14:08:23;18.20;99.90
9640;DHT22;51745;50.872;4.732;2023-05-07T14:11:13;18.20;99.90
9640;DHT22;51745;50.872;4.732;2023-05-07T14:14:01;18.70;99.90
9640;DHT22;51745;50.872;4.732;2023-05-07T14:16:51;18.30;99.90
9640;DHT22;51745;50.872;4.732;2023-05-07T14:19:40;18.20;99.90
9640;DHT22;51745;50.872;4.732;2023-05-07T14:22:31;18.20;99.90
9640;DHT22;51745;50.872;4.732;2023-05-07T14:25:20;17.90;99.90
9640;DHT22;51745;50.872;4.732;2023-05-07T14:28:11;18.10;99.90
9640;DHT22;51745;50.872;4.732;2023-05-07T14:31:03;18.00;99.90
9640;DHT22;51745;50.872;4.732;2023-05-07T14:33:55;17.80;99.90
9640;DHT22;51745;50.872;4.732;2023-05-07T14:36:44;17.70;99.90
9640;DHT22;51745;50.872;4.732;2023-05-07T14:39:36;17.70;99.90
9640;DHT22;51745;50.872;4.732;2023-05-07T14:42:34;17.70;99.90
9640;DHT22;51745;50.872;4.732;2023-05-07T14:45:30;19.20;99.90
9640;DHT22;51745;50.872;4.732;2023-05-07T14:48:17;17.90;99.90
9640;DHT22;51745;50.872;4.732;2023-05-07T14:51:18;17.90;99.90
9640;DHT22;51745;50.872;4.732;2023-05-07T14:54:06;18.00;99.90
9640;DHT22;51745;50.872;4.732;2023-05-07T14:56:54;18.10;99.90
9640;DHT22;51745;50.872;4.732;2023-05-07T14:59:44;18.10;99.90
9640;DHT22;51745;50.872;4.732;2023-05-07T15:02:35;18.00;99.90
9640;DHT22;51745;50.872;4.732;2023-05-07T15:05:24;18.00;99.90
9640;DHT22;51745;50.872;4.732;2023-05-07T15:08:15;18.00;99.90
9640;DHT22;51745;50.872;4.732;2023-05-07T15:11:03;18.10;99.90
9640;DHT22;51745;50.872;4.732;2023-05-07T15:13:52;18.20;99.90
9640;DHT22;51745;50.872;4.732;2023-05-07T15:16:40;18.20;99.90
9640;DHT22;51745;50.872;4.732;2023-05-07T15:19:30;17.90;99.90
9640;DHT22;51745;50.872;4.732;2023-05-07T15:22:19;17.80;99.90
9640;DHT22;51745;50.872;4.732;2023-05-07T15:25:08;17.70;99.90
9640;DHT22;51745;50.872;4.732;2023-05-07T15:27:56;17.70;99.90
9640;DHT22;51745;50.872;4.732;2023-05-07T15:30:44;17.70;99.90
9640;DHT22;51745;50.872;4.732;2023-05-07T15:33:35;17.70;99.90
9640;DHT22;51745;50.872;4.732;2023-05-07T15:36:24;18.10;99.90
9640;DHT22;51745;50.872;4.732;2023-05-07T15:39:14;17.80;99.90
9640;DHT22;51745;50.872;4.732;2023-05-07T15:42:06;17.70;99.90
9640;DHT22;51745;50.872;4.732;2023-05-07T15:44:54;15.30;99.90
9640;DHT22;51745;50.872;4.732;2023-05-07T15:47:43;17.80;99.90
9640;DHT22;51745;50.872;4.732;2023-05-07T15:50:34;17.80;99.90
9640;DHT22;51745;50.872;4.732;2023-05-07T15:53:23;17.80;99.90
9640;DHT22;51745;50.872;4.732;2023-05-07T15:56:16;17.80;99.90
9640;DHT22;51745;50.872;4.732;2023-05-07T15:59:05;17.80;99.90
9640;DHT22;51745;50.872;4.732;2023-05-07T16:01:53;18.60;99.90
9640;DHT22;51745;50.872;4.732;2023-05-07T16:04:44;17.80;99.90
9640;DHT22;51745;50.872;4.732;2023-05-07T16:07:32;17.20;99.90
9640;DHT22;51745;50.872;4.732;2023-05-07T16:10:24;17.90;99.90
9640;DHT22;51745;50.872;4.732;2023-05-07T16:13:11;17.80;99.90
9640;DHT22;51745;50.872;4.732;2023-05-07T16:16:00;17.80;99.90
9640;DHT22;51745;50.872;4.732;2023-05-07T16:18:48;18.20;99.90
9640;DHT22;51745;50.872;4.732;2023-05-07T16:21:36;17.80;99.90
9640;DHT22;51745;50.872;4.732;2023-05-07T16:24:24;17.90;99.90
9640;DHT22;51745;50.872;4.732;2023-05-07T16:27:17;17.80;99.90
9640;DHT22;51745;50.872;4.732;2023-05-07T16:30:08;17.80;99.90
9640;DHT22;51745;50.872;4.732;2023-05-07T16:32:56;17.90;99.90
9640;DHT22;51745;50.872;4.732;2023-05-07T16:35:49;18.10;99.90
9640;DHT22;51745;50.872;4.732;2023-05-07T16:38:38;17.60;99.90
9640;DHT22;51745;50.872;4.732;2023-05-07T16:41:26;18.00;99.90
9640;DHT22;51745;50.872;4.732;2023-05-07T16:44:16;17.80;99.90
9640;DHT22;51745;50.872;4.732;2023-05-07T16:47:04;17.60;99.90
9640;DHT22;51745;50.872;4.732;2023-05-07T16:49:53;17.70;99.90
9640;DHT22;51745;50.872;4.732;2023-05-07T16:52:41;17.70;99.90
9640;DHT22;51745;50.872;4.732;2023-05-07T16:55:29;17.70;99.90
9640;DHT22;51745;50.872;4.732;2023-05-07T16:58:27;17.60;99.90
9640;DHT22;51745;50.872;4.732;2023-05-07T17:01:17;17.70;99.90
9640;DHT22;51745;50.872;4.732;2023-05-07T17:04:06;19.60;99.90
9640;DHT22;51745;50.872;4.732;2023-05-07T17:06:54;17.70;99.90
9640;DHT22;51745;50.872;4.732;2023-05-07T17:09:44;17.40;99.90
9640;DHT22;51745;50.872;4.732;2023-05-07T17:12:32;17.40;99.90
9640;DHT22;51745;50.872;4.732;2023-05-07T17:15:21;17.40;99.90
9640;DHT22;51745;50.872;4.732;2023-05-07T17:18:11;17.50;99.90
9640;DHT22;51745;50.872;4.732;2023-05-07T17:20:59;17.30;99.90
9640;DHT22;51745;50.872;4.732;2023-05-07T17:23:48;17.30;99.90
9640;DHT22;51745;50.872;4.732;2023-05-07T17:26:39;17.30;99.90
9640;DHT22;51745;50.872;4.732;2023-05-07T17:29:28;17.40;99.90
9640;DHT22;51745;50.872;4.732;2023-05-07T17:32:19;17.50;99.90
9640;DHT22;51745;50.872;4.732;2023-05-07T17:35:10;18.70;99.90
9640;DHT22;51745;50.872;4.732;2023-05-07T17:38:01;17.10;99.90
9640;DHT22;51745;50.872;4.732;2023-05-07T17:40:49;17.20;99.90
9640;DHT22;51745;50.872;4.732;2023-05-07T17:43:41;17.10;99.90
9640;DHT22;51745;50.872;4.732;2023-05-07T17:46:33;18.10;99.90
9640;DHT22;51745;50.872;4.732;2023-05-07T17:49:23;14.70;99.90
9640;DHT22;51745;50.872;4.732;2023-05-07T17:52:13;18.30;99.90
9640;DHT22;51745;50.872;4.732;2023-05-07T17:55:05;16.80;99.90
9640;DHT22;51745;50.872;4.732;2023-05-07T17:57:53;16.80;99.90
9640;DHT22;51745;50.872;4.732;2023-05-07T18:01:10;16.80;99.90
9640;DHT22;51745;50.872;4.732;2023-05-07T18:04:02;17.20;99.90
9640;DHT22;51745;50.872;4.732;2023-05-07T18:06:51;17.00;99.90
9640;DHT22;51745;50.872;4.732;2023-05-07T18:09:44;17.90;99.90
9640;DHT22;51745;50.872;4.732;2023-05-07T18:12:35;17.40;99.90
9640;DHT22;51745;50.872;4.732;2023-05-07T18:15:23;19.30;99.90
9640;DHT22;51745;50.872;4.732;2023-05-07T18:18:13;17.10;99.90
9640;DHT22;51745;50.872;4.732;2023-05-07T18:21:03;17.50;99.90
9640;DHT22;51745;50.872;4.732;2023-05-07T18:23:54;16.80;99.90
9640;DHT22;51745;50.872;4.732;2023-05-07T18:26:46;17.20;99.90